createdAt,value
2022-11-26T00:02:21.023Z,3.78
2022-11-26T00:04:48.514Z,3.30
2022-11-26T00:07:22.240Z,4.70
2022-11-26T00:09:50.332Z,3.60
2022-11-26T00:12:22.233Z,4.07
2022-11-26T00:14:49.041Z,3.37
2022-11-26T00:17:17.234Z,3.55
2022-11-26T00:19:45.634Z,3.85
2022-11-26T00:22:38.145Z,3.45
2022-11-26T00:25:05.421Z,4.28
2022-11-26T00:27:32.202Z,3.88
2022-11-26T00:29:58.928Z,6.00
2022-11-26T00:32:26.466Z,3.97
2022-11-26T00:34:53.828Z,5.53
2022-11-26T00:37:26.272Z,4.85
2022-11-26T00:39:53.354Z,4.57
2022-11-26T00:42:20.543Z,6.45
2022-11-26T00:44:47.482Z,3.33
2022-11-26T00:47:14.429Z,3.70
2022-11-26T00:49:41.152Z,4.00
2022-11-26T00:52:34.995Z,4.20
2022-11-26T00:55:16.530Z,4.07
2022-11-26T00:57:43.684Z,3.65
2022-11-26T01:00:26.565Z,3.95
2022-11-26T01:02:53.661Z,4.25
2022-11-26T01:05:23.315Z,4.10
2022-11-26T01:07:52.369Z,3.90
2022-11-26T01:10:29.195Z,3.22
2022-11-26T01:12:56.651Z,3.45
2022-11-26T01:15:26.249Z,3.00
2022-11-26T01:17:53.599Z,2.78
2022-11-26T01:20:28.395Z,3.80
2022-11-26T01:22:57.356Z,3.08
2022-11-26T01:25:26.927Z,3.90
2022-11-26T01:27:54.035Z,3.75
2022-11-26T01:30:25.880Z,4.00
2022-11-26T01:32:52.925Z,5.50
2022-11-26T01:35:21.772Z,3.63
2022-11-26T01:37:49.716Z,3.28
2022-11-26T01:40:53.064Z,3.40
2022-11-26T01:43:28.077Z,3.45
2022-11-26T01:45:56.492Z,4.35
2022-11-26T01:48:33.621Z,3.17
2022-11-26T01:51:03.197Z,3.28
2022-11-26T01:53:44.449Z,3.22
2022-11-26T01:56:33.165Z,3.58
2022-11-26T01:59:26.189Z,3.17
2022-11-26T02:01:55.644Z,3.33
2022-11-26T02:04:36.284Z,3.03
2022-11-26T02:07:03.967Z,2.60
2022-11-26T02:09:31.564Z,3.22
2022-11-26T02:11:58.397Z,2.70
2022-11-26T02:14:44.000Z,2.97
2022-11-26T02:17:26.816Z,3.92
2022-11-26T02:20:15.154Z,2.88
2022-11-26T02:22:50.555Z,3.03
2022-11-26T02:25:26.268Z,3.13
2022-11-26T02:28:42.310Z,3.13
2022-11-26T02:31:25.524Z,3.00
2022-11-26T02:34:14.907Z,3.20
2022-11-26T02:37:04.214Z,2.83
2022-11-26T02:39:31.130Z,2.78
2022-11-26T02:42:02.417Z,2.35
2022-11-26T02:44:38.208Z,2.38
2022-11-26T02:47:14.326Z,3.00
2022-11-26T02:49:42.980Z,2.95
2022-11-26T02:52:11.648Z,3.05
2022-11-26T02:54:40.261Z,3.22
2022-11-26T02:57:12.965Z,3.10
2022-11-26T02:59:40.388Z,2.70
2022-11-26T03:02:16.592Z,2.50
2022-11-26T03:04:49.405Z,2.35
2022-11-26T03:09:59.594Z,2.30
2022-11-26T03:12:27.184Z,2.47
2022-11-26T03:14:53.927Z,2.70
2022-11-26T03:17:21.155Z,2.78
2022-11-26T03:19:48.046Z,2.38
2022-11-26T03:22:15.652Z,2.13
2022-11-26T03:24:42.888Z,1.98
2022-11-26T03:27:09.673Z,2.40
2022-11-26T03:29:36.417Z,2.53
2022-11-26T03:32:03.622Z,2.67
2022-11-26T03:34:30.484Z,2.25
2022-11-26T03:36:57.223Z,2.20
2022-11-26T03:39:24.031Z,2.80
2022-11-26T03:41:50.797Z,2.08
2022-11-26T03:44:17.595Z,2.17
2022-11-26T03:46:44.328Z,2.13
2022-11-26T03:49:11.074Z,2.15
2022-11-26T03:51:37.820Z,2.30
2022-11-26T03:54:04.751Z,2.20
2022-11-26T03:56:31.462Z,1.80
2022-11-26T03:58:58.525Z,2.00
2022-11-26T04:01:25.806Z,1.92
2022-11-26T04:03:52.657Z,1.80
2022-11-26T04:06:19.415Z,1.83
2022-11-26T04:08:46.176Z,2.58
2022-11-26T04:11:14.192Z,2.65
2022-11-26T04:13:40.920Z,3.17
2022-11-26T04:16:08.179Z,1.98
2022-11-26T04:18:35.086Z,2.75
2022-11-26T04:21:02.057Z,1.90
2022-11-26T04:23:28.843Z,1.85
2022-11-26T04:25:55.561Z,2.22
2022-11-26T04:28:22.330Z,2.50
2022-11-26T04:30:49.061Z,2.75
2022-11-26T04:33:15.876Z,1.90
2022-11-26T04:35:42.771Z,2.05
2022-11-26T04:38:09.810Z,2.88
2022-11-26T04:40:36.655Z,2.22
2022-11-26T04:43:03.674Z,2.20
2022-11-26T04:45:30.639Z,2.28
2022-11-26T04:47:57.416Z,2.05
2022-11-26T04:50:24.483Z,2.17
2022-11-26T04:52:51.316Z,2.47
2022-11-26T04:55:18.760Z,1.90
2022-11-26T04:57:48.779Z,2.00
2022-11-26T05:00:18.059Z,1.88
2022-11-26T05:02:45.539Z,2.30
2022-11-26T05:05:13.185Z,2.25
2022-11-26T05:07:40.568Z,2.55
2022-11-26T05:10:08.948Z,2.42
2022-11-26T05:12:36.406Z,2.70
2022-11-26T05:15:04.904Z,1.70
2022-11-26T05:17:32.324Z,3.47
2022-11-26T05:19:59.060Z,1.70
2022-11-26T05:22:25.924Z,2.35
2022-11-26T05:24:52.679Z,2.65
2022-11-26T05:27:19.464Z,2.92
2022-11-26T05:29:46.259Z,2.22
2022-11-26T05:32:13.092Z,3.00
2022-11-26T05:34:40.170Z,2.83
2022-11-26T05:37:07.151Z,2.42
2022-11-26T05:39:33.953Z,2.45
2022-11-26T05:42:04.841Z,2.72
2022-11-26T05:44:34.545Z,2.13
2022-11-26T05:47:01.359Z,2.40
2022-11-26T05:49:28.098Z,2.85
2022-11-26T05:51:54.881Z,2.22
2022-11-26T05:54:21.629Z,3.47
2022-11-26T05:56:48.405Z,2.28
2022-11-26T05:59:15.110Z,2.40
2022-11-26T06:01:41.848Z,2.30
2022-11-26T06:04:08.627Z,2.30
2022-11-26T06:06:35.356Z,1.70
2022-11-26T06:09:03.238Z,2.20
2022-11-26T06:11:30.088Z,2.45
2022-11-26T06:13:56.837Z,1.70
2022-11-26T06:16:23.589Z,2.17
2022-11-26T06:18:50.499Z,1.90
2022-11-26T06:21:17.220Z,2.80
2022-11-26T06:23:52.835Z,1.55
2022-11-26T06:26:21.218Z,2.65
2022-11-26T06:28:47.982Z,3.20
2022-11-26T06:31:14.778Z,4.10
2022-11-26T06:33:41.596Z,2.75
2022-11-26T06:36:09.458Z,3.22
2022-11-26T06:38:36.265Z,3.05
2022-11-26T06:41:06.704Z,3.42
2022-11-26T06:43:33.986Z,3.65
2022-11-26T06:46:06.633Z,2.10
2022-11-26T06:48:38.003Z,2.28
2022-11-26T06:51:07.577Z,2.78
2022-11-26T06:53:34.362Z,2.15
2022-11-26T06:56:02.731Z,4.10
2022-11-26T06:58:29.629Z,2.83
2022-11-26T07:00:57.274Z,3.58
2022-11-26T07:03:28.092Z,2.22
2022-11-26T07:05:58.786Z,2.47
2022-11-26T07:08:25.703Z,3.13
2022-11-26T07:10:52.539Z,2.35
2022-11-26T07:13:19.301Z,2.00
2022-11-26T07:15:46.177Z,1.83
2022-11-26T07:18:13.009Z,2.70
2022-11-26T07:20:39.832Z,2.40
2022-11-26T07:23:06.565Z,1.83
2022-11-26T07:25:33.276Z,3.38
2022-11-26T07:28:00.008Z,3.85
2022-11-26T07:30:26.825Z,2.20
2022-11-26T07:32:53.608Z,2.38
2022-11-26T07:35:20.374Z,2.65
2022-11-26T07:37:47.158Z,2.22
2022-11-26T07:40:14.305Z,2.60
2022-11-26T07:42:41.045Z,3.10
2022-11-26T07:45:08.654Z,3.10
2022-11-26T07:47:35.599Z,4.18
2022-11-26T07:50:03.409Z,2.92
2022-11-26T07:52:30.221Z,2.47
2022-11-26T07:54:57.147Z,3.15
2022-11-26T07:57:25.351Z,3.58
2022-11-26T07:59:52.204Z,3.95
2022-11-26T08:02:19.165Z,3.42
2022-11-26T08:04:46.098Z,4.40
2022-11-26T08:07:18.098Z,4.32
2022-11-26T08:09:49.878Z,4.53
2022-11-26T08:12:16.622Z,4.40
2022-11-26T08:14:43.341Z,4.22
2022-11-26T08:17:10.077Z,3.45
2022-11-26T08:19:36.793Z,4.13
2022-11-26T08:22:03.604Z,5.22
2022-11-26T08:24:31.333Z,4.00
2022-11-26T08:27:00.731Z,3.58
2022-11-26T08:29:27.757Z,4.00
2022-11-26T08:31:54.558Z,4.28
2022-11-26T08:34:21.412Z,6.10
2022-11-26T08:36:48.164Z,6.13
2022-11-26T08:39:17.680Z,8.95
2022-11-26T08:41:50.600Z,9.35
2022-11-26T08:44:19.683Z,68.35
2022-11-26T08:46:46.490Z,45.83
2022-11-26T08:49:15.128Z,21.38
2022-11-26T08:51:42.506Z,16.73
2022-11-26T08:54:09.952Z,9.98
2022-11-26T08:56:37.125Z,7.47
2022-11-26T08:59:04.276Z,6.97
2022-11-26T09:01:33.735Z,5.20
2022-11-26T09:04:02.224Z,5.57
2022-11-26T09:06:31.455Z,6.32
2022-11-26T09:09:15.539Z,5.25
2022-11-26T09:11:57.880Z,5.40
2022-11-26T09:14:29.727Z,9.97
2022-11-26T09:16:58.166Z,9.37
2022-11-26T09:19:25.639Z,10.00
2022-11-26T09:21:52.407Z,7.05
2022-11-26T09:24:20.166Z,5.60
2022-11-26T09:26:48.503Z,6.53
2022-11-26T09:29:19.828Z,9.40
2022-11-26T09:32:21.240Z,7.20
2022-11-26T09:34:34.189Z,8.25
2022-11-26T09:37:01.005Z,8.25
2022-11-26T09:39:28.410Z,18.95
2022-11-26T09:42:04.903Z,18.45
2022-11-26T09:44:54.509Z,15.70
2022-11-26T09:47:33.673Z,7.75
2022-11-26T09:50:06.294Z,7.68
2022-11-26T09:53:02.758Z,8.77
2022-11-26T09:55:38.933Z,9.32
2022-11-26T09:58:39.275Z,11.27
2022-11-26T10:01:07.928Z,12.73
2022-11-26T10:03:37.462Z,11.85
2022-11-26T10:06:38.663Z,8.98
2022-11-26T10:09:29.712Z,8.15
2022-11-26T10:12:31.421Z,7.80
2022-11-26T10:15:38.638Z,7.70
2022-11-26T10:18:40.025Z,7.97
2022-11-26T10:21:38.064Z,7.88
2022-11-26T10:24:28.901Z,7.35
2022-11-26T10:26:58.797Z,7.10
2022-11-26T10:29:42.610Z,7.53
2022-11-26T10:32:25.687Z,6.38
2022-11-26T10:34:55.083Z,5.85
2022-11-26T10:37:25.586Z,7.47
2022-11-26T10:40:15.406Z,8.00
2022-11-26T10:42:45.088Z,6.22
2022-11-26T10:45:22.082Z,4.10
2022-11-26T10:47:48.926Z,3.67
2022-11-26T10:53:22.410Z,4.70
2022-11-26T10:55:51.403Z,3.88
2022-11-26T10:58:26.255Z,3.55
2022-11-26T11:01:00.313Z,6.00
2022-11-26T11:06:43.990Z,3.25
2022-11-26T11:09:36.709Z,2.97
2022-11-26T11:12:19.329Z,2.30
2022-11-26T11:14:47.584Z,3.05
2022-11-26T11:17:37.274Z,2.47
2022-11-26T11:20:38.184Z,1.90
2022-11-26T11:23:18.715Z,1.38
2022-11-26T11:25:58.415Z,2.70
2022-11-26T11:28:29.041Z,2.50
2022-11-26T11:31:13.449Z,2.60
2022-11-26T11:33:40.835Z,1.90
2022-11-26T11:36:29.218Z,1.55
2022-11-26T11:39:00.294Z,2.00
2022-11-26T11:41:42.507Z,1.30
2022-11-26T11:44:26.984Z,1.50
2022-11-26T11:47:38.218Z,1.17
2022-11-26T11:50:32.480Z,3.42
2022-11-26T11:53:17.352Z,2.97
2022-11-26T11:56:14.548Z,3.53
2022-11-26T11:59:05.517Z,2.85
2022-11-26T12:02:04.202Z,2.80
2022-11-26T12:05:08.417Z,4.10
2022-11-26T12:07:40.178Z,2.33
2022-11-26T12:10:15.302Z,3.85
2022-11-26T12:13:03.297Z,2.67
2022-11-26T12:16:05.843Z,3.05
2022-11-26T12:18:49.551Z,2.42
2022-11-26T12:21:21.925Z,2.38
2022-11-26T12:24:09.307Z,2.38
2022-11-26T12:26:47.102Z,2.00
2022-11-26T12:30:12.389Z,2.60
2022-11-26T12:33:01.863Z,1.95
2022-11-26T12:35:36.794Z,1.70
2022-11-26T12:38:21.356Z,1.83
2022-11-26T12:41:00.902Z,0.95
2022-11-26T12:43:47.986Z,2.03
2022-11-26T12:46:27.221Z,4.10
2022-11-26T12:49:22.367Z,2.28
2022-11-26T12:52:14.568Z,1.23
2022-11-26T12:55:04.429Z,0.90
2022-11-26T12:57:39.950Z,0.95
2022-11-26T13:00:15.166Z,2.30
2022-11-26T13:02:49.540Z,6.22
2022-11-26T13:05:22.402Z,6.88
2022-11-26T13:08:11.580Z,5.00
2022-11-26T13:11:28.702Z,6.25
2022-11-26T13:14:03.898Z,3.03
2022-11-26T13:16:52.843Z,2.83
2022-11-26T13:19:27.071Z,1.80
2022-11-26T13:22:29.695Z,4.03
2022-11-26T13:25:05.465Z,1.75
2022-11-26T13:28:18.720Z,2.40
2022-11-26T13:31:23.347Z,1.80
2022-11-26T13:34:19.121Z,1.95
2022-11-26T13:37:04.005Z,1.17
2022-11-26T13:39:52.885Z,2.05
2022-11-26T13:42:50.402Z,2.10
2022-11-26T13:45:39.001Z,2.47
2022-11-26T13:48:28.016Z,1.90
2022-11-26T13:51:25.156Z,1.70
2022-11-26T13:54:04.325Z,1.73
2022-11-26T13:56:33.009Z,2.67
2022-11-26T13:59:16.446Z,3.53
2022-11-26T14:01:43.671Z,4.40
2022-11-26T14:04:47.694Z,4.00
2022-11-26T14:07:14.527Z,4.53
2022-11-26T14:09:46.711Z,3.33
2022-11-26T14:12:15.557Z,5.00
2022-11-26T14:14:44.273Z,3.85
2022-11-26T14:17:14.356Z,2.80
2022-11-26T14:19:40.978Z,3.88
2022-11-26T14:22:20.262Z,3.58
2022-11-26T14:24:50.155Z,3.28
2022-11-26T14:27:26.285Z,3.25
2022-11-26T14:30:00.404Z,4.57
2022-11-26T14:32:31.258Z,8.15
2022-11-26T14:34:58.656Z,8.48
2022-11-26T14:37:31.261Z,8.75
2022-11-26T14:40:08.149Z,11.85
2022-11-26T14:42:35.073Z,6.65
2022-11-26T14:45:19.118Z,4.57
2022-11-26T14:47:50.357Z,4.57
2022-11-26T14:50:21.698Z,4.50
2022-11-26T14:52:57.813Z,5.57
2022-11-26T14:55:28.985Z,4.53
2022-11-26T14:58:14.760Z,4.57
2022-11-26T15:00:41.694Z,5.10
2022-11-26T15:03:25.158Z,4.28
2022-11-26T15:05:51.990Z,4.47
2022-11-26T15:08:20.669Z,5.72
2022-11-26T15:10:52.184Z,4.53
2022-11-26T15:13:28.669Z,5.43
2022-11-26T15:16:02.016Z,4.55
2022-11-26T15:18:32.773Z,4.70
2022-11-26T15:21:01.658Z,4.05
2022-11-26T15:23:37.045Z,3.40
2022-11-26T15:26:04.575Z,4.18
2022-11-26T15:28:38.739Z,4.10
2022-11-26T15:31:08.603Z,4.60
2022-11-26T15:33:37.989Z,3.97
2022-11-26T15:36:09.522Z,3.65
2022-11-26T15:39:03.184Z,2.80
2022-11-26T15:41:30.725Z,3.33
2022-11-26T15:43:59.912Z,3.20
2022-11-26T15:46:35.116Z,2.78
2022-11-26T15:49:08.211Z,2.47
2022-11-26T15:51:59.440Z,2.13
2022-11-26T15:54:56.596Z,1.83
2022-11-26T15:57:30.396Z,2.42
2022-11-26T16:00:05.127Z,1.92
2022-11-26T16:02:32.457Z,1.50
2022-11-26T16:05:03.659Z,1.08
2022-11-26T16:07:33.111Z,1.40
2022-11-26T16:10:25.987Z,2.05
2022-11-26T16:13:19.373Z,1.20
2022-11-26T16:15:51.608Z,1.20
2022-11-26T16:18:24.118Z,1.48
2022-11-26T16:21:01.505Z,1.30
2022-11-26T16:23:30.235Z,1.27
2022-11-26T16:26:26.907Z,1.05
2022-11-26T16:28:53.942Z,0.88
2022-11-26T16:31:21.646Z,0.85
2022-11-26T16:33:48.483Z,1.05
2022-11-26T16:36:27.074Z,1.70
2022-11-26T16:38:54.053Z,0.82
2022-11-26T16:41:22.914Z,0.82
2022-11-26T16:43:50.317Z,1.08
2022-11-26T16:46:20.975Z,1.23
2022-11-26T16:48:48.253Z,0.82
2022-11-26T16:51:15.172Z,1.17
2022-11-26T16:53:42.465Z,1.48
2022-11-26T16:56:27.537Z,1.23
2022-11-26T16:58:58.106Z,1.05
2022-11-26T17:01:24.986Z,1.08
2022-11-26T17:03:51.834Z,1.20
2022-11-26T17:06:39.127Z,1.25
2022-11-26T17:09:05.867Z,1.35
2022-11-26T17:11:32.605Z,1.00
2022-11-26T17:13:59.326Z,0.90
2022-11-26T17:16:26.395Z,1.20
2022-11-26T17:18:53.337Z,0.80
2022-11-26T17:21:20.111Z,1.38
2022-11-26T17:23:46.884Z,1.00
2022-11-26T17:26:22.478Z,1.08
2022-11-26T17:28:50.376Z,1.38
2022-11-26T17:31:18.233Z,1.00
2022-11-26T17:33:45.106Z,1.25
2022-11-26T17:36:21.420Z,1.30
2022-11-26T17:38:49.498Z,0.80
2022-11-26T17:41:16.687Z,1.00
2022-11-26T17:43:44.010Z,0.70
2022-11-26T17:46:21.447Z,1.27
2022-11-26T17:48:51.448Z,1.83
2022-11-26T17:53:47.872Z,1.13
2022-11-26T17:56:24.564Z,0.80
2022-11-26T17:58:51.438Z,1.00
2022-11-26T18:01:18.829Z,1.20
2022-11-26T18:03:46.129Z,1.30
2022-11-26T18:06:37.387Z,0.95
2022-11-26T18:09:04.296Z,0.70
2022-11-26T18:12:00.990Z,1.95
2022-11-26T18:14:29.642Z,1.25
2022-11-26T18:16:56.474Z,8.45
2022-11-26T18:19:23.772Z,1.15
2022-11-26T18:21:51.735Z,1.05
2022-11-26T18:24:18.752Z,1.30
2022-11-26T18:26:45.696Z,0.75
2022-11-26T18:29:12.830Z,1.48
2022-11-26T18:31:40.194Z,1.10
2022-11-26T18:34:08.068Z,1.40
2022-11-26T18:36:35.039Z,2.72
2022-11-26T18:39:04.707Z,2.65
2022-11-26T18:41:31.760Z,3.25
2022-11-26T18:43:58.633Z,1.85
2022-11-26T18:46:25.425Z,3.88
2022-11-26T18:48:52.337Z,3.15
2022-11-26T18:51:19.348Z,3.63
2022-11-26T18:53:46.105Z,4.30
2022-11-26T18:56:16.738Z,2.42
2022-11-26T18:58:44.072Z,2.15
2022-11-26T19:01:23.583Z,1.50
2022-11-26T19:03:50.937Z,1.17
2022-11-26T19:06:21.869Z,1.67
2022-11-26T19:08:49.582Z,2.42
2022-11-26T19:11:24.009Z,1.85
2022-11-26T19:13:51.704Z,1.90
2022-11-26T19:16:19.839Z,1.85
2022-11-26T19:18:47.542Z,1.77
2022-11-26T19:21:33.563Z,1.67
2022-11-26T19:24:03.961Z,2.38
2022-11-26T19:26:31.028Z,1.98
2022-11-26T19:29:02.940Z,2.28
2022-11-26T19:31:30.684Z,3.10
2022-11-26T19:34:01.098Z,1.85
2022-11-26T19:36:29.854Z,1.80
2022-11-26T19:38:58.478Z,2.15
2022-11-26T19:41:26.746Z,1.65
2022-11-26T19:43:54.278Z,1.85
2022-11-26T19:46:24.030Z,1.75
2022-11-26T19:48:52.876Z,2.25
2022-11-26T19:51:22.028Z,2.53
2022-11-26T19:53:51.311Z,2.95
2022-11-26T19:56:25.501Z,2.38
2022-11-26T19:58:58.666Z,2.83
2022-11-26T20:01:30.784Z,1.85
2022-11-26T20:04:04.399Z,2.30
2022-11-26T20:06:34.234Z,2.20
2022-11-26T20:09:01.382Z,2.10
2022-11-26T20:11:48.005Z,2.17
